METAR Data
IDs: Format: Raw Decoded Include TAF

Data at: 0224 UTC 29 Nov 2020

METAR for:KORD (Chicago/O'Hare Intl, IL, US)
Text:KORD 290151Z 22013G24KT 10SM CLR 07/02 A3003 RMK AO2 SLP175 T00720017 $
Temperature: 7.2°C ( 45°F)
Dewpoint: 1.7°C ( 35°F) [RH = 68%]
Pressure (altimeter):30.03 inches Hg (1017.0 mb) [Sea level pressure: 1017.5 mb]
Winds:from the SW (220 degrees) at 15 MPH (13 knots; 6.7 m/s) gusting to 28 MPH (24 knots; 12.3 m/s)
Visibility:10 or more sm (16+ km)
Ceiling:at least 12,000 feet AGL
Clouds:sky clear below 12,000 feet AGL
QC Flag:SOME DATA ABOVE MAY BE INACCURATE!!!"$" is an indication the sensor requires maintenance.
Text:KORD 290051Z 22015G24KT 10SM CLR 08/02 A3003 RMK AO2 SLP174 T00780022 $
Temperature: 7.8°C ( 46°F)
Dewpoint: 2.2°C ( 36°F) [RH = 68%]
Pressure (altimeter):30.03 inches Hg (1017.0 mb) [Sea level pressure: 1017.4 mb]
Winds:from the SW (220 degrees) at 17 MPH (15 knots; 7.7 m/s) gusting to 28 MPH (24 knots; 12.3 m/s)
Visibility:10 or more sm (16+ km)
Ceiling:at least 12,000 feet AGL
Clouds:sky clear below 12,000 feet AGL
QC Flag:SOME DATA ABOVE MAY BE INACCURATE!!!"$" is an indication the sensor requires maintenance.
Text:KORD 282351Z 21011G19KT 10SM CLR 08/02 A3004 RMK AO2 SLP177 T00780022 10100 20072 55004 $
Temperature: 7.8°C ( 46°F)
Dewpoint: 2.2°C ( 36°F) [RH = 68%]
Pressure (altimeter):30.04 inches Hg (1017.4 mb) [Sea level pressure: 1017.7 mb]
Winds:from the SSW (210 degrees) at 13 MPH (11 knots; 5.7 m/s) gusting to 22 MPH (19 knots; 9.8 m/s)
Visibility:10 or more sm (16+ km)
Ceiling:at least 12,000 feet AGL
Clouds:sky clear below 12,000 feet AGL
QC Flag:SOME DATA ABOVE MAY BE INACCURATE!!!"$" is an indication the sensor requires maintenance.
Text:KORD 282251Z 21010G19KT 10SM CLR 08/02 A3003 RMK AO2 SLP175 T00830017 $
Temperature: 8.3°C ( 47°F)
Dewpoint: 1.7°C ( 35°F) [RH = 63%]
Pressure (altimeter):30.03 inches Hg (1017.0 mb) [Sea level pressure: 1017.5 mb]
Winds:from the SSW (210 degrees) at 12 MPH (10 knots; 5.1 m/s) gusting to 22 MPH (19 knots; 9.8 m/s)
Visibility:10 or more sm (16+ km)
Ceiling:at least 12,000 feet AGL
Clouds:sky clear below 12,000 feet AGL
QC Flag:SOME DATA ABOVE MAY BE INACCURATE!!!"$" is an indication the sensor requires maintenance.
Text:KORD 282151Z 21010KT 10SM CLR 09/01 A3003 RMK AO2 SLP175 T00940011 $
Temperature: 9.4°C ( 49°F)
Dewpoint: 1.1°C ( 34°F) [RH = 56%]
Pressure (altimeter):30.03 inches Hg (1017.0 mb) [Sea level pressure: 1017.5 mb]
Winds:from the SSW (210 degrees) at 12 MPH (10 knots; 5.1 m/s)
Visibility:10 or more sm (16+ km)
Ceiling:at least 12,000 feet AGL
Clouds:sky clear below 12,000 feet AGL
QC Flag:SOME DATA ABOVE MAY BE INACCURATE!!!"$" is an indication the sensor requires maintenance.
Text:KORD 282051Z 22012KT 10SM CLR 09/01 A3005 RMK AO2 SLP180 T00940006 56022 $
Temperature: 9.4°C ( 49°F)
Dewpoint: 0.6°C ( 33°F) [RH = 54%]
Pressure (altimeter):30.05 inches Hg (1017.7 mb) [Sea level pressure: 1018.0 mb]
Winds:from the SW (220 degrees) at 14 MPH (12 knots; 6.2 m/s)
Visibility:10 or more sm (16+ km)
Ceiling:at least 12,000 feet AGL
Clouds:sky clear below 12,000 feet AGL
QC Flag:SOME DATA ABOVE MAY BE INACCURATE!!!"$" is an indication the sensor requires maintenance.
Text:KORD 281951Z 22011KT 10SM CLR 09/00 A3006 RMK AO2 SLP184 T00940000
Temperature: 9.4°C ( 49°F)
Dewpoint: 0.0°C ( 32°F) [RH = 52%]
Pressure (altimeter):30.06 inches Hg (1018.0 mb) [Sea level pressure: 1018.4 mb]
Winds:from the SW (220 degrees) at 13 MPH (11 knots; 5.7 m/s)
Visibility:10 or more sm (16+ km)
Ceiling:at least 12,000 feet AGL
Clouds:sky clear below 12,000 feet AGL
Text:KORD 281851Z 22013KT 10SM FEW200 08/M01 A3008 RMK AO2 SLP192 T00831011
Temperature: 8.3°C ( 47°F)
Dewpoint: -1.1°C ( 30°F) [RH = 51%]
Pressure (altimeter):30.08 inches Hg (1018.7 mb) [Sea level pressure: 1019.2 mb]
Winds:from the SW (220 degrees) at 15 MPH (13 knots; 6.7 m/s)
Visibility:10 or more sm (16+ km)
Ceiling:at least 12,000 feet AGL
Clouds: few clouds at 20000 feet AGL
Text:KORD 281751Z 21011KT 10SM FEW200 07/M02 A3012 RMK AO2 SLP204 T00721017 10072 21017 58021
Temperature: 7.2°C ( 45°F)
Dewpoint: -1.7°C ( 29°F) [RH = 53%]
Pressure (altimeter):30.12 inches Hg (1020.1 mb) [Sea level pressure: 1020.4 mb]
Winds:from the SSW (210 degrees) at 13 MPH (11 knots; 5.7 m/s)
Visibility:10 or more sm (16+ km)
Ceiling:at least 12,000 feet AGL
Clouds: few clouds at 20000 feet AGL
Text:KORD 281651Z 23013KT 10SM CLR 06/M02 A3016 RMK AO2 SLP217 T00561022
Temperature: 5.6°C ( 42°F)
Dewpoint: -2.2°C ( 28°F) [RH = 57%]
Pressure (altimeter):30.16 inches Hg (1021.4 mb) [Sea level pressure: 1021.7 mb]
Winds:from the SW (230 degrees) at 15 MPH (13 knots; 6.7 m/s)
Visibility:10 or more sm (16+ km)
Ceiling:at least 12,000 feet AGL
Clouds:sky clear below 12,000 feet AGL
Text:KORD 281551Z 21012KT 10SM CLR 04/M03 A3017 RMK AO2 SLP223 T00391028
Temperature: 3.9°C ( 39°F)
Dewpoint: -2.8°C ( 27°F) [RH = 62%]
Pressure (altimeter):30.17 inches Hg (1021.8 mb) [Sea level pressure: 1022.3 mb]
Winds:from the SSW (210 degrees) at 14 MPH (12 knots; 6.2 m/s)
Visibility:10 or more sm (16+ km)
Ceiling:at least 12,000 feet AGL
Clouds:sky clear below 12,000 feet AGL
Text:KORD 281451Z 23008KT 10SM FEW200 01/M04 A3018 RMK AO2 SLP226 T00111039 53005
Temperature: 1.1°C ( 34°F)
Dewpoint: -3.9°C ( 25°F) [RH = 69%]
Pressure (altimeter):30.18 inches Hg (1022.1 mb) [Sea level pressure: 1022.6 mb]
Winds:from the SW (230 degrees) at 9 MPH (8 knots; 4.1 m/s)
Visibility:10 or more sm (16+ km)
Ceiling:at least 12,000 feet AGL
Clouds: few clouds at 20000 feet AGL
Text:KORD 281351Z 22007KT 10SM FEW200 M01/M04 A3017 RMK AO2 SLP222 T10061044
Temperature: -0.6°C ( 31°F)
Dewpoint: -4.4°C ( 24°F) [RH = 75%]
Pressure (altimeter):30.17 inches Hg (1021.8 mb) [Sea level pressure: 1022.2 mb]
Winds:from the SW (220 degrees) at 8 MPH (7 knots; 3.6 m/s)
Visibility:10 or more sm (16+ km)
Ceiling:at least 12,000 feet AGL
Clouds: few clouds at 20000 feet AGL
Text:KORD 281251Z 23005KT 10SM FEW030 M01/M05 A3016 RMK AO2 SLP220 T10111050
Temperature: -1.1°C ( 30°F)
Dewpoint: -5.0°C ( 23°F) [RH = 75%]
Pressure (altimeter):30.16 inches Hg (1021.4 mb) [Sea level pressure: 1022.0 mb]
Winds:from the SW (230 degrees) at 6 MPH (5 knots; 2.6 m/s)
Visibility:10 or more sm (16+ km)
Ceiling:at least 12,000 feet AGL
Clouds: few clouds at 3000 feet AGL
Text:KORD 281151Z 22005KT 10SM CLR M01/M05 A3016 RMK AO2 SLP221 T10111050 10006 21017 50004
Temperature: -1.1°C ( 30°F)
Dewpoint: -5.0°C ( 23°F) [RH = 75%]
Pressure (altimeter):30.16 inches Hg (1021.4 mb) [Sea level pressure: 1022.1 mb]
Winds:from the SW (220 degrees) at 6 MPH (5 knots; 2.6 m/s)
Visibility:10 or more sm (16+ km)
Ceiling:at least 12,000 feet AGL
Clouds:sky clear below 12,000 feet AGL
Text:KORD 281051Z 23005KT 10SM CLR M02/M05 A3017 RMK AO2 SLP222 T10171050
Temperature: -1.7°C ( 29°F)
Dewpoint: -5.0°C ( 23°F) [RH = 78%]
Pressure (altimeter):30.17 inches Hg (1021.8 mb) [Sea level pressure: 1022.2 mb]
Winds:from the SW (230 degrees) at 6 MPH (5 knots; 2.6 m/s)
Visibility:10 or more sm (16+ km)
Ceiling:at least 12,000 feet AGL
Clouds:sky clear below 12,000 feet AGL
Text:KORD 280951Z 21003KT 10SM CLR M01/M05 A3015 RMK AO2 SLP216 T10111050
Temperature: -1.1°C ( 30°F)
Dewpoint: -5.0°C ( 23°F) [RH = 75%]
Pressure (altimeter):30.15 inches Hg (1021.1 mb) [Sea level pressure: 1021.6 mb]
Winds:from the SSW (210 degrees) at 3 MPH (3 knots; 1.5 m/s)
Visibility:10 or more sm (16+ km)
Ceiling:at least 12,000 feet AGL
Clouds:sky clear below 12,000 feet AGL
Text:KORD 280851Z 27003KT 10SM CLR M01/M05 A3015 RMK AO2 SLP216 T10061050 53002
Temperature: -0.6°C ( 31°F)
Dewpoint: -5.0°C ( 23°F) [RH = 72%]
Pressure (altimeter):30.15 inches Hg (1021.1 mb) [Sea level pressure: 1021.6 mb]
Winds:from the W (270 degrees) at 3 MPH (3 knots; 1.5 m/s)
Visibility:10 or more sm (16+ km)
Ceiling:at least 12,000 feet AGL
Clouds:sky clear below 12,000 feet AGL
Text:KORD 280751Z 27004KT 10SM CLR 00/M05 A3015 RMK AO2 SLP214 T00001050
Temperature: 0.0°C ( 32°F)
Dewpoint: -5.0°C ( 23°F) [RH = 69%]
Pressure (altimeter):30.15 inches Hg (1021.1 mb) [Sea level pressure: 1021.4 mb]
Winds:from the W (270 degrees) at 5 MPH (4 knots; 2.1 m/s)
Visibility:10 or more sm (16+ km)
Ceiling:at least 12,000 feet AGL
Clouds:sky clear below 12,000 feet AGL
Text:KORD 280651Z 30007KT 10SM CLR 01/M05 A3015 RMK AO2 SLP215 T00061050
Temperature: 0.6°C ( 33°F)
Dewpoint: -5.0°C ( 23°F) [RH = 66%]
Pressure (altimeter):30.15 inches Hg (1021.1 mb) [Sea level pressure: 1021.5 mb]
Winds:from the WNW (300 degrees) at 8 MPH (7 knots; 3.6 m/s)
Visibility:10 or more sm (16+ km)
Ceiling:at least 12,000 feet AGL
Clouds:sky clear below 12,000 feet AGL
Text:KORD 280551Z 29005KT 10SM CLR 01/M05 A3015 RMK AO2 SLP214 T00061050 10039 20006 400720006 53004
Temperature: 0.6°C ( 33°F)
Dewpoint: -5.0°C ( 23°F) [RH = 66%]
Pressure (altimeter):30.15 inches Hg (1021.1 mb) [Sea level pressure: 1021.4 mb]
Winds:from the WNW (290 degrees) at 6 MPH (5 knots; 2.6 m/s)
Visibility:10 or more sm (16+ km)
Ceiling:at least 12,000 feet AGL
Clouds:sky clear below 12,000 feet AGL
Text:KORD 280451Z 29005KT 10SM CLR 01/M05 A3014 RMK AO2 SLP211 T00111050
Temperature: 1.1°C ( 34°F)
Dewpoint: -5.0°C ( 23°F) [RH = 64%]
Pressure (altimeter):30.14 inches Hg (1020.7 mb) [Sea level pressure: 1021.1 mb]
Winds:from the WNW (290 degrees) at 6 MPH (5 knots; 2.6 m/s)
Visibility:10 or more sm (16+ km)
Ceiling:at least 12,000 feet AGL
Clouds:sky clear below 12,000 feet AGL
Text:KORD 280351Z 28005KT 10SM CLR 02/M04 A3013 RMK AO2 SLP209 T00171044
Temperature: 1.7°C ( 35°F)
Dewpoint: -4.4°C ( 24°F) [RH = 64%]
Pressure (altimeter):30.13 inches Hg (1020.4 mb) [Sea level pressure: 1020.9 mb]
Winds:from the W (280 degrees) at 6 MPH (5 knots; 2.6 m/s)
Visibility:10 or more sm (16+ km)
Ceiling:at least 12,000 feet AGL
Clouds:sky clear below 12,000 feet AGL
Text:KORD 280251Z 29006KT 10SM CLR 02/M04 A3013 RMK AO2 SLP210 T00221044 51009
Temperature: 2.2°C ( 36°F)
Dewpoint: -4.4°C ( 24°F) [RH = 62%]
Pressure (altimeter):30.13 inches Hg (1020.4 mb) [Sea level pressure: 1021.0 mb]
Winds:from the WNW (290 degrees) at 7 MPH (6 knots; 3.1 m/s)
Visibility:10 or more sm (16+ km)
Ceiling:at least 12,000 feet AGL
Clouds:sky clear below 12,000 feet AGL